sensor_id;sensor_type;location;lat;lon;timestamp;pressure;altitude;pressure_sealevel;temperature;humidity
51999;BME280;38015;50.924;11.598;2022-08-18T00:00:41;98985.28;;;26.27;37.72
51999;BME280;38015;50.924;11.598;2022-08-18T00:03:12;98983.26;;;26.30;37.67
51999;BME280;38015;50.924;11.598;2022-08-18T00:05:42;98986.50;;;26.31;37.61
51999;BME280;38015;50.924;11.598;2022-08-18T00:08:13;98987.69;;;26.31;37.61
51999;BME280;38015;50.924;11.598;2022-08-18T00:10:43;98986.40;;;26.33;37.57
51999;BME280;38015;50.924;11.598;2022-08-18T00:13:13;98988.25;;;26.31;37.60
51999;BME280;38015;50.924;11.598;2022-08-18T00:15:43;98991.72;;;26.28;37.67
51999;BME280;38015;50.924;11.598;2022-08-18T00:18:14;98988.39;;;26.30;37.63
51999;BME280;38015;50.924;11.598;2022-08-18T00:20:44;98986.47;;;26.37;37.46
51999;BME280;38015;50.924;11.598;2022-08-18T00:23:15;98988.28;;;26.36;37.49
51999;BME280;38015;50.924;11.598;2022-08-18T00:25:46;98986.29;;;26.32;37.56
51999;BME280;38015;50.924;11.598;2022-08-18T00:28:16;98984.26;;;26.36;37.50
51999;BME280;38015;50.924;11.598;2022-08-18T00:30:46;98979.99;;;26.35;37.52
51999;BME280;38015;50.924;11.598;2022-08-18T00:33:21;98983.44;;;26.30;37.62
51999;BME280;38015;50.924;11.598;2022-08-18T00:35:48;98974.15;;;26.36;37.51
51999;BME280;38015;50.924;11.598;2022-08-18T00:38:18;98969.31;;;26.31;37.56
51999;BME280;38015;50.924;11.598;2022-08-18T00:40:50;98965.55;;;26.31;37.60
51999;BME280;38015;50.924;11.598;2022-08-18T00:43:22;98965.22;;;26.34;37.51
51999;BME280;38015;50.924;11.598;2022-08-18T00:45:49;98966.36;;;26.37;37.43
51999;BME280;38015;50.924;11.598;2022-08-18T00:48:19;98969.29;;;26.39;37.39
51999;BME280;38015;50.924;11.598;2022-08-18T00:50:53;98969.90;;;26.34;37.51
51999;BME280;38015;50.924;11.598;2022-08-18T00:53:24;98971.58;;;26.36;37.46
51999;BME280;38015;50.924;11.598;2022-08-18T00:55:51;98969.20;;;26.34;37.53
51999;BME280;38015;50.924;11.598;2022-08-18T00:58:24;98966.42;;;26.31;37.56
51999;BME280;38015;50.924;11.598;2022-08-18T01:00:50;98965.93;;;26.29;37.62
51999;BME280;38015;50.924;11.598;2022-08-18T01:03:22;98965.48;;;26.35;37.47
51999;BME280;38015;50.924;11.598;2022-08-18T01:05:55;98966.46;;;26.38;37.44
51999;BME280;38015;50.924;11.598;2022-08-18T01:08:21;98970.11;;;26.31;37.60
51999;BME280;38015;50.924;11.598;2022-08-18T01:10:52;98977.20;;;26.39;37.43
51999;BME280;38015;50.924;11.598;2022-08-18T01:13:25;98978.24;;;26.34;37.55
51999;BME280;38015;50.924;11.598;2022-08-18T01:15:52;98980.27;;;26.37;37.47
51999;BME280;38015;50.924;11.598;2022-08-18T01:18:22;98979.19;;;26.35;37.51
51999;BME280;38015;50.924;11.598;2022-08-18T01:20:59;98976.84;;;26.36;37.53
51999;BME280;38015;50.924;11.598;2022-08-18T01:23:23;98975.81;;;26.37;37.49
51999;BME280;38015;50.924;11.598;2022-08-18T01:25:53;98971.64;;;26.38;37.51
51999;BME280;38015;50.924;11.598;2022-08-18T01:28:24;98968.63;;;26.30;37.67
51999;BME280;38015;50.924;11.598;2022-08-18T01:30:55;98966.13;;;26.35;37.53
51999;BME280;38015;50.924;11.598;2022-08-18T01:33:27;98967.63;;;26.37;37.50
51999;BME280;38015;50.924;11.598;2022-08-18T01:35:55;98966.65;;;26.33;37.64
51999;BME280;38015;50.924;11.598;2022-08-18T01:38:25;98970.11;;;26.36;37.54
51999;BME280;38015;50.924;11.598;2022-08-18T01:40:56;98967.61;;;26.35;37.55
51999;BME280;38015;50.924;11.598;2022-08-18T01:43:26;98970.42;;;26.32;37.65
51999;BME280;38015;50.924;11.598;2022-08-18T01:45:56;98972.96;;;26.34;37.59
51999;BME280;38015;50.924;11.598;2022-08-18T01:48:27;98976.84;;;26.33;37.62
51999;BME280;38015;50.924;11.598;2022-08-18T01:50:57;98973.75;;;26.34;37.60
51999;BME280;38015;50.924;11.598;2022-08-18T01:53:27;98971.95;;;26.35;37.56
51999;BME280;38015;50.924;11.598;2022-08-18T01:55:59;98969.81;;;26.32;37.66
51999;BME280;38015;50.924;11.598;2022-08-18T01:58:29;98970.06;;;26.36;37.56
51999;BME280;38015;50.924;11.598;2022-08-18T02:00:59;98966.41;;;26.31;37.69
51999;BME280;38015;50.924;11.598;2022-08-18T02:03:32;98966.84;;;26.31;37.69
51999;BME280;38015;50.924;11.598;2022-08-18T02:06:02;98965.92;;;26.32;37.64
51999;BME280;38015;50.924;11.598;2022-08-18T02:08:30;98965.64;;;26.32;37.68
51999;BME280;38015;50.924;11.598;2022-08-18T02:11:00;98966.69;;;26.37;37.55
51999;BME280;38015;50.924;11.598;2022-08-18T02:13:31;98971.74;;;26.32;37.66
51999;BME280;38015;50.924;11.598;2022-08-18T02:16:02;98969.85;;;26.40;37.48
51999;BME280;38015;50.924;11.598;2022-08-18T02:18:35;98967.82;;;26.26;37.78
51999;BME280;38015;50.924;11.598;2022-08-18T02:21:07;98967.19;;;26.28;37.74
51999;BME280;38015;50.924;11.598;2022-08-18T02:23:33;98967.34;;;26.31;37.68
51999;BME280;38015;50.924;11.598;2022-08-18T02:26:04;98970.45;;;26.34;37.62
51999;BME280;38015;50.924;11.598;2022-08-18T02:28:34;98972.09;;;26.30;37.69
51999;BME280;38015;50.924;11.598;2022-08-18T02:31:07;98973.28;;;26.36;37.58
51999;BME280;38015;50.924;11.598;2022-08-18T02:33:36;98972.77;;;26.33;37.66
51999;BME280;38015;50.924;11.598;2022-08-18T02:36:07;98975.16;;;26.31;37.69
51999;BME280;38015;50.924;11.598;2022-08-18T02:38:36;98974.26;;;26.34;37.63
51999;BME280;38015;50.924;11.598;2022-08-18T02:41:09;98982.29;;;26.30;37.74
51999;BME280;38015;50.924;11.598;2022-08-18T02:43:37;98983.55;;;26.29;37.77
51999;BME280;38015;50.924;11.598;2022-08-18T02:46:07;98983.56;;;26.33;37.69
51999;BME280;38015;50.924;11.598;2022-08-18T02:48:37;98979.71;;;26.29;37.76
51999;BME280;38015;50.924;11.598;2022-08-18T02:51:09;98975.27;;;26.28;37.80
51999;BME280;38015;50.924;11.598;2022-08-18T02:53:39;98970.71;;;26.32;37.72
51999;BME280;38015;50.924;11.598;2022-08-18T02:56:09;98966.36;;;26.27;37.82
51999;BME280;38015;50.924;11.598;2022-08-18T02:58:38;98958.91;;;26.28;37.79
51999;BME280;38015;50.924;11.598;2022-08-18T03:01:09;98957.05;;;26.32;37.70
51999;BME280;38015;50.924;11.598;2022-08-18T03:03:39;98955.65;;;26.27;37.86
51999;BME280;38015;50.924;11.598;2022-08-18T03:06:09;98953.92;;;26.23;37.94
51999;BME280;38015;50.924;11.598;2022-08-18T03:08:39;98958.72;;;26.31;37.78
51999;BME280;38015;50.924;11.598;2022-08-18T03:11:10;98958.08;;;26.30;37.80
51999;BME280;38015;50.924;11.598;2022-08-18T03:13:41;98951.62;;;26.27;37.83
51999;BME280;38015;50.924;11.598;2022-08-18T03:16:12;98950.90;;;26.32;37.73
51999;BME280;38015;50.924;11.598;2022-08-18T03:18:42;98949.89;;;26.30;37.78
51999;BME280;38015;50.924;11.598;2022-08-18T03:21:14;98948.51;;;26.30;37.80
51999;BME280;38015;50.924;11.598;2022-08-18T03:23:42;98949.28;;;26.30;37.79
51999;BME280;38015;50.924;11.598;2022-08-18T03:26:14;98950.46;;;26.30;37.83
51999;BME280;38015;50.924;11.598;2022-08-18T03:28:45;98952.39;;;26.28;37.84
51999;BME280;38015;50.924;11.598;2022-08-18T03:31:15;98956.44;;;26.34;37.72
51999;BME280;38015;50.924;11.598;2022-08-18T03:33:49;98956.22;;;26.33;37.76
51999;BME280;38015;50.924;11.598;2022-08-18T03:36:16;98952.16;;;26.29;37.85
51999;BME280;38015;50.924;11.598;2022-08-18T03:38:45;98950.25;;;26.31;37.81
51999;BME280;38015;50.924;11.598;2022-08-18T03:41:17;98951.32;;;26.34;37.72
51999;BME280;38015;50.924;11.598;2022-08-18T03:43:45;98952.16;;;26.31;37.81
51999;BME280;38015;50.924;11.598;2022-08-18T03:46:17;98956.62;;;26.28;37.87
51999;BME280;38015;50.924;11.598;2022-08-18T03:48:46;98957.27;;;26.30;37.85
51999;BME280;38015;50.924;11.598;2022-08-18T03:51:19;98957.95;;;26.30;37.83
51999;BME280;38015;50.924;11.598;2022-08-18T03:53:47;98958.84;;;26.32;37.81
51999;BME280;38015;50.924;11.598;2022-08-18T03:56:19;98957.03;;;26.31;37.84
51999;BME280;38015;50.924;11.598;2022-08-18T03:58:50;98955.79;;;26.31;37.82
51999;BME280;38015;50.924;11.598;2022-08-18T04:01:20;98954.11;;;26.35;37.73
51999;BME280;38015;50.924;11.598;2022-08-18T04:03:52;98958.70;;;26.32;37.82
51999;BME280;38015;50.924;11.598;2022-08-18T04:06:25;98959.68;;;26.34;37.78
51999;BME280;38015;50.924;11.598;2022-08-18T04:08:50;98957.92;;;26.28;37.92
51999;BME280;38015;50.924;11.598;2022-08-18T04:11:21;98953.72;;;26.27;37.92
51999;BME280;38015;50.924;11.598;2022-08-18T04:13:51;98953.56;;;26.28;37.88
51999;BME280;38015;50.924;11.598;2022-08-18T04:16:21;98952.95;;;26.27;37.91
51999;BME280;38015;50.924;11.598;2022-08-18T04:18:51;98961.26;;;26.29;37.84
51999;BME280;38015;50.924;11.598;2022-08-18T04:21:22;98969.10;;;26.29;37.84
51999;BME280;38015;50.924;11.598;2022-08-18T04:23:52;98971.56;;;26.28;37.86
51999;BME280;38015;50.924;11.598;2022-08-18T04:26:23;98972.60;;;26.30;37.79
51999;BME280;38015;50.924;11.598;2022-08-18T04:28:52;98975.06;;;26.33;37.72
51999;BME280;38015;50.924;11.598;2022-08-18T04:31:23;98975.12;;;26.26;37.84
51999;BME280;38015;50.924;11.598;2022-08-18T04:33:55;98975.86;;;26.31;37.73
51999;BME280;38015;50.924;11.598;2022-08-18T04:36:25;98975.05;;;26.29;37.78
51999;BME280;38015;50.924;11.598;2022-08-18T04:38:55;98971.75;;;26.26;37.83
51999;BME280;38015;50.924;11.598;2022-08-18T04:41:26;98970.41;;;26.25;37.85
51999;BME280;38015;50.924;11.598;2022-08-18T04:43:57;98971.91;;;26.27;37.82
51999;BME280;38015;50.924;11.598;2022-08-18T04:46:27;98976.18;;;26.33;37.67
51999;BME280;38015;50.924;11.598;2022-08-18T04:48:57;98979.26;;;26.33;37.67
51999;BME280;38015;50.924;11.598;2022-08-18T04:51:28;98977.77;;;26.28;37.76
51999;BME280;38015;50.924;11.598;2022-08-18T04:53:57;98982.61;;;26.28;37.81
51999;BME280;38015;50.924;11.598;2022-08-18T04:56:29;98986.33;;;26.28;37.78
51999;BME280;38015;50.924;11.598;2022-08-18T04:58:59;98992.24;;;26.28;37.77
51999;BME280;38015;50.924;11.598;2022-08-18T05:01:30;98990.17;;;26.31;37.70
51999;BME280;38015;50.924;11.598;2022-08-18T05:03:58;98990.02;;;26.26;37.76
51999;BME280;38015;50.924;11.598;2022-08-18T05:06:29;98989.52;;;26.35;37.58
51999;BME280;38015;50.924;11.598;2022-08-18T05:09:00;98989.97;;;26.32;37.66
51999;BME280;38015;50.924;11.598;2022-08-18T05:11:30;98988.56;;;26.29;37.71
51999;BME280;38015;50.924;11.598;2022-08-18T05:14:01;98991.78;;;26.27;37.78
51999;BME280;38015;50.924;11.598;2022-08-18T05:16:30;98994.28;;;26.28;37.73
51999;BME280;38015;50.924;11.598;2022-08-18T05:19:00;99000.96;;;26.31;37.65
51999;BME280;38015;50.924;11.598;2022-08-18T05:21:31;99010.60;;;26.27;37.75
51999;BME280;38015;50.924;11.598;2022-08-18T05:24:00;99013.22;;;26.32;37.62
51999;BME280;38015;50.924;11.598;2022-08-18T05:26:31;99014.40;;;26.30;37.67
51999;BME280;38015;50.924;11.598;2022-08-18T05:29:02;99015.79;;;26.34;37.57
51999;BME280;38015;50.924;11.598;2022-08-18T05:31:31;99017.77;;;26.33;37.59
51999;BME280;38015;50.924;11.598;2022-08-18T05:34:01;99020.30;;;26.33;37.59
51999;BME280;38015;50.924;11.598;2022-08-18T05:36:41;99025.68;;;26.36;37.54
51999;BME280;38015;50.924;11.598;2022-08-18T05:39:07;99033.17;;;26.38;37.47
51999;BME280;38015;50.924;11.598;2022-08-18T05:41:35;99035.07;;;26.34;37.56
51999;BME280;38015;50.924;11.598;2022-08-18T05:44:03;99032.86;;;26.39;37.43
51999;BME280;38015;50.924;11.598;2022-08-18T05:46:37;99034.67;;;26.40;37.41
51999;BME280;38015;50.924;11.598;2022-08-18T05:49:03;99033.46;;;26.38;37.45
51999;BME280;38015;50.924;11.598;2022-08-18T05:51:38;99035.66;;;26.36;37.51
51999;BME280;38015;50.924;11.598;2022-08-18T05:54:05;99037.71;;;26.39;37.43
51999;BME280;38015;50.924;11.598;2022-08-18T05:56:36;99038.83;;;26.34;37.57
51999;BME280;38015;50.924;11.598;2022-08-18T05:59:05;99043.36;;;26.36;37.50
51999;BME280;38015;50.924;11.598;2022-08-18T06:01:39;99049.09;;;26.37;37.45
51999;BME280;38015;50.924;11.598;2022-08-18T06:04:13;99049.63;;;26.38;37.44
51999;BME280;38015;50.924;11.598;2022-08-18T06:06:36;99048.93;;;26.40;37.40
51999;BME280;38015;50.924;11.598;2022-08-18T06:09:11;99047.69;;;26.35;37.52
51999;BME280;38015;50.924;11.598;2022-08-18T06:11:37;99052.30;;;26.38;37.45
51999;BME280;38015;50.924;11.598;2022-08-18T06:14:07;99053.44;;;26.39;37.44
51999;BME280;38015;50.924;11.598;2022-08-18T06:16:46;99058.59;;;26.38;37.44
51999;BME280;38015;50.924;11.598;2022-08-18T06:19:18;99058.37;;;26.38;37.43
51999;BME280;38015;50.924;11.598;2022-08-18T06:21:44;99056.56;;;26.41;37.38
51999;BME280;38015;50.924;11.598;2022-08-18T06:24:15;99053.14;;;26.38;37.47
51999;BME280;38015;50.924;11.598;2022-08-18T06:26:45;99059.74;;;26.40;37.43
51999;BME280;38015;50.924;11.598;2022-08-18T06:29:20;99065.23;;;26.38;37.47
51999;BME280;38015;50.924;11.598;2022-08-18T06:31:43;99066.15;;;26.35;37.51
51999;BME280;38015;50.924;11.598;2022-08-18T06:34:17;99066.17;;;26.35;37.54
51999;BME280;38015;50.924;11.598;2022-08-18T06:36:48;99065.38;;;26.39;37.44
51999;BME280;38015;50.924;11.598;2022-08-18T06:39:17;99063.04;;;26.38;37.49
51999;BME280;38015;50.924;11.598;2022-08-18T06:41:43;99060.96;;;26.39;37.44
51999;BME280;38015;50.924;11.598;2022-08-18T06:44:18;99069.05;;;26.37;37.51
51999;BME280;38015;50.924;11.598;2022-08-18T06:46:45;99075.63;;;26.38;37.47
51999;BME280;38015;50.924;11.598;2022-08-18T06:49:20;99078.23;;;26.41;37.42
51999;BME280;38015;50.924;11.598;2022-08-18T06:51:42;99081.13;;;26.37;37.51
51999;BME280;38015;50.924;11.598;2022-08-18T06:56:47;99084.29;;;26.37;37.53
51999;BME280;38015;50.924;11.598;2022-08-18T06:59:17;99085.67;;;26.39;37.50
51999;BME280;38015;50.924;11.598;2022-08-18T07:01:44;99089.23;;;26.41;37.43
51999;BME280;38015;50.924;11.598;2022-08-18T07:06:44;99098.69;;;26.43;37.42
51999;BME280;38015;50.924;11.598;2022-08-18T07:09:21;99096.48;;;26.38;37.57
51999;BME280;38015;50.924;11.598;2022-08-18T07:14:21;99086.90;;;26.38;37.52
51999;BME280;38015;50.924;11.598;2022-08-18T07:16:47;99081.18;;;26.34;37.64
51999;BME280;38015;50.924;11.598;2022-08-18T07:19:18;99080.40;;;26.34;37.65
51999;BME280;38015;50.924;11.598;2022-08-18T07:22:00;99083.44;;;26.33;37.66
51999;BME280;38015;50.924;11.598;2022-08-18T07:24:23;99096.05;;;26.34;37.60
51999;BME280;38015;50.924;11.598;2022-08-18T07:26:57;99104.12;;;26.36;37.61
51999;BME280;38015;50.924;11.598;2022-08-18T07:29:18;99113.20;;;26.43;37.50
51999;BME280;38015;50.924;11.598;2022-08-18T07:31:53;99117.36;;;26.40;37.56
51999;BME280;38015;50.924;11.598;2022-08-18T07:34:22;99117.64;;;26.40;37.63
51999;BME280;38015;50.924;11.598;2022-08-18T07:36:53;99115.81;;;26.40;37.65
51999;BME280;38015;50.924;11.598;2022-08-18T07:39:22;99118.10;;;26.35;37.82
51999;BME280;38015;50.924;11.598;2022-08-18T07:41:54;99122.27;;;26.37;37.77
51999;BME280;38015;50.924;11.598;2022-08-18T07:44:26;99124.22;;;26.36;37.73
51999;BME280;38015;50.924;11.598;2022-08-18T07:46:55;99128.27;;;26.38;37.70
51999;BME280;38015;50.924;11.598;2022-08-18T07:49:23;99127.31;;;26.38;37.65
51999;BME280;38015;50.924;11.598;2022-08-18T07:51:56;99125.42;;;26.38;37.73
51999;BME280;38015;50.924;11.598;2022-08-18T07:54:34;99124.83;;;26.36;37.72
51999;BME280;38015;50.924;11.598;2022-08-18T07:56:59;99124.25;;;26.35;37.76
51999;BME280;38015;50.924;11.598;2022-08-18T07:59:27;99121.52;;;26.28;37.97
51999;BME280;38015;50.924;11.598;2022-08-18T08:01:58;99121.43;;;26.31;37.90
51999;BME280;38015;50.924;11.598;2022-08-18T08:04:31;99122.09;;;26.35;37.76
51999;BME280;38015;50.924;11.598;2022-08-18T08:07:00;99124.30;;;26.38;37.70
51999;BME280;38015;50.924;11.598;2022-08-18T08:09:38;99122.62;;;26.33;37.78
51999;BME280;38015;50.924;11.598;2022-08-18T08:11:58;99119.65;;;26.30;37.86
51999;BME280;38015;50.924;11.598;2022-08-18T08:14:36;99117.49;;;26.34;37.76
51999;BME280;38015;50.924;11.598;2022-08-18T08:17:04;99118.38;;;26.34;37.76
51999;BME280;38015;50.924;11.598;2022-08-18T08:19:40;99115.91;;;26.40;37.63
51999;BME280;38015;50.924;11.598;2022-08-18T08:22:02;99115.67;;;26.36;37.71
51999;BME280;38015;50.924;11.598;2022-08-18T08:24:34;99117.18;;;26.38;37.65
51999;BME280;38015;50.924;11.598;2022-08-18T08:27:10;99122.91;;;26.37;37.68
51999;BME280;38015;50.924;11.598;2022-08-18T08:29:37;99127.50;;;26.39;37.63
51999;BME280;38015;50.924;11.598;2022-08-18T08:32:03;99132.04;;;26.36;37.70
51999;BME280;38015;50.924;11.598;2022-08-18T08:34:34;99135.35;;;26.41;37.58
51999;BME280;38015;50.924;11.598;2022-08-18T08:37:02;99133.88;;;26.41;37.59
51999;BME280;38015;50.924;11.598;2022-08-18T08:39:36;99134.45;;;26.43;37.54
51999;BME280;38015;50.924;11.598;2022-08-18T08:42:07;99136.83;;;26.43;37.52
51999;BME280;38015;50.924;11.598;2022-08-18T08:44:34;99137.09;;;26.38;37.62
51999;BME280;38015;50.924;11.598;2022-08-18T08:47:06;99134.25;;;26.42;37.57
51999;BME280;38015;50.924;11.598;2022-08-18T08:49:37;99135.38;;;26.38;37.70
51999;BME280;38015;50.924;11.598;2022-08-18T08:52:08;99134.34;;;26.33;37.86
51999;BME280;38015;50.924;11.598;2022-08-18T08:54:40;99128.51;;;26.30;37.86
51999;BME280;38015;50.924;11.598;2022-08-18T08:57:04;99126.38;;;26.32;37.88
51999;BME280;38015;50.924;11.598;2022-08-18T08:59:35;99123.62;;;26.34;37.78
51999;BME280;38015;50.924;11.598;2022-08-18T09:04:45;99119.89;;;26.38;37.74
51999;BME280;38015;50.924;11.598;2022-08-18T09:07:18;99121.84;;;26.35;37.80
51999;BME280;38015;50.924;11.598;2022-08-18T09:09:54;99126.43;;;26.38;37.72
51999;BME280;38015;50.924;11.598;2022-08-18T09:12:25;99123.62;;;26.37;37.76
51999;BME280;38015;50.924;11.598;2022-08-18T09:22:15;99126.41;;;26.42;37.61
51999;BME280;38015;50.924;11.598;2022-08-18T09:24:40;99136.56;;;26.41;37.71
51999;BME280;38015;50.924;11.598;2022-08-18T09:27:15;99145.71;;;26.41;37.94
51999;BME280;38015;50.924;11.598;2022-08-18T09:29:47;99155.40;;;26.45;37.73
51999;BME280;38015;50.924;11.598;2022-08-18T09:34:46;99158.45;;;26.46;37.84
51999;BME280;38015;50.924;11.598;2022-08-18T09:37:15;99165.95;;;26.43;37.91
51999;BME280;38015;50.924;11.598;2022-08-18T09:39:50;99171.03;;;26.43;38.01
51999;BME280;38015;50.924;11.598;2022-08-18T09:42:14;99165.56;;;26.39;38.12
51999;BME280;38015;50.924;11.598;2022-08-18T09:49:47;99162.73;;;26.31;38.30
51999;BME280;38015;50.924;11.598;2022-08-18T09:54:51;99161.37;;;26.35;38.20
51999;BME280;38015;50.924;11.598;2022-08-18T09:57:18;99156.77;;;26.34;38.22
51999;BME280;38015;50.924;11.598;2022-08-18T09:59:53;99155.97;;;26.34;38.21
51999;BME280;38015;50.924;11.598;2022-08-18T10:04:47;99142.77;;;26.38;38.16
51999;BME280;38015;50.924;11.598;2022-08-18T10:07:21;99135.49;;;26.33;38.24
51999;BME280;38015;50.924;11.598;2022-08-18T10:09:55;99129.51;;;26.30;38.36
51999;BME280;38015;50.924;11.598;2022-08-18T10:12:32;99125.64;;;26.34;38.28
51999;BME280;38015;50.924;11.598;2022-08-18T10:17:28;99134.27;;;26.40;38.12
51999;BME280;38015;50.924;11.598;2022-08-18T10:19:54;99127.86;;;26.36;38.19
51999;BME280;38015;50.924;11.598;2022-08-18T10:24:53;99127.45;;;26.35;38.21
51999;BME280;38015;50.924;11.598;2022-08-18T10:29:52;99126.08;;;26.34;38.26
51999;BME280;38015;50.924;11.598;2022-08-18T10:34:52;99119.28;;;26.33;38.27
51999;BME280;38015;50.924;11.598;2022-08-18T10:37:22;99112.87;;;26.33;38.34
51999;BME280;38015;50.924;11.598;2022-08-18T10:39:53;99111.73;;;26.34;38.26
51999;BME280;38015;50.924;11.598;2022-08-18T10:42:24;99110.29;;;26.32;38.35
51999;BME280;38015;50.924;11.598;2022-08-18T10:44:57;99110.92;;;26.33;38.29
51999;BME280;38015;50.924;11.598;2022-08-18T10:47:23;99112.84;;;26.40;38.20
51999;BME280;38015;50.924;11.598;2022-08-18T10:49:51;99111.87;;;26.43;38.15
51999;BME280;38015;50.924;11.598;2022-08-18T10:52:29;99106.37;;;26.31;38.40
51999;BME280;38015;50.924;11.598;2022-08-18T10:57:29;99107.11;;;26.31;38.42
51999;BME280;38015;50.924;11.598;2022-08-18T11:00:00;99103.55;;;26.31;38.42
51999;BME280;38015;50.924;11.598;2022-08-18T11:02:37;99110.64;;;26.34;38.40
51999;BME280;38015;50.924;11.598;2022-08-18T11:04:55;99112.99;;;26.37;38.30
51999;BME280;38015;50.924;11.598;2022-08-18T11:07:27;99113.01;;;26.33;38.40
51999;BME280;38015;50.924;11.598;2022-08-18T11:09:58;99107.54;;;26.33;38.39
51999;BME280;38015;50.924;11.598;2022-08-18T11:12:39;99111.64;;;26.32;38.45
51999;BME280;38015;50.924;11.598;2022-08-18T11:15:06;99112.34;;;26.37;38.34
51999;BME280;38015;50.924;11.598;2022-08-18T11:17:38;99121.78;;;26.34;38.41
51999;BME280;38015;50.924;11.598;2022-08-18T11:20:05;99126.92;;;26.40;38.30
51999;BME280;38015;50.924;11.598;2022-08-18T11:22:30;99126.76;;;26.42;38.32
51999;BME280;38015;50.924;11.598;2022-08-18T11:25:00;99129.80;;;26.36;38.44
51999;BME280;38015;50.924;11.598;2022-08-18T11:27:33;99134.60;;;26.35;38.53
51999;BME280;38015;50.924;11.598;2022-08-18T11:30:03;99139.71;;;26.34;38.53
51999;BME280;38015;50.924;11.598;2022-08-18T11:32:32;99141.07;;;26.33;38.58
51999;BME280;38015;50.924;11.598;2022-08-18T11:35:05;99142.46;;;26.34;38.56
51999;BME280;38015;50.924;11.598;2022-08-18T11:37:35;99139.46;;;26.35;38.53
51999;BME280;38015;50.924;11.598;2022-08-18T11:40:06;99134.19;;;26.33;38.58
51999;BME280;38015;50.924;11.598;2022-08-18T11:42:33;99125.64;;;26.30;38.64
51999;BME280;38015;50.924;11.598;2022-08-18T11:45:06;99117.31;;;26.35;38.57
51999;BME280;38015;50.924;11.598;2022-08-18T11:47:32;99112.70;;;26.35;38.62
51999;BME280;38015;50.924;11.598;2022-08-18T11:50:09;99113.46;;;26.38;38.58
51999;BME280;38015;50.924;11.598;2022-08-18T11:52:46;99116.03;;;26.37;38.57
51999;BME280;38015;50.924;11.598;2022-08-18T11:55:05;99122.09;;;26.41;38.46
51999;BME280;38015;50.924;11.598;2022-08-18T11:57:40;99123.12;;;26.33;38.61
51999;BME280;38015;50.924;11.598;2022-08-18T12:02:36;99115.24;;;26.33;38.67
51999;BME280;38015;50.924;11.598;2022-08-18T12:05:05;99117.00;;;26.36;38.70
51999;BME280;38015;50.924;11.598;2022-08-18T12:07:39;99121.87;;;26.31;38.88
51999;BME280;38015;50.924;11.598;2022-08-18T12:10:14;99126.68;;;26.36;38.68
51999;BME280;38015;50.924;11.598;2022-08-18T12:12:43;99121.76;;;26.38;38.65
51999;BME280;38015;50.924;11.598;2022-08-18T12:17:37;99119.10;;;26.36;38.66
51999;BME280;38015;50.924;11.598;2022-08-18T12:20:08;99114.42;;;26.39;38.67
51999;BME280;38015;50.924;11.598;2022-08-18T12:22:40;99109.96;;;26.39;38.65
51999;BME280;38015;50.924;11.598;2022-08-18T12:25:11;99103.84;;;26.32;38.82
51999;BME280;38015;50.924;11.598;2022-08-18T12:27:38;99105.53;;;26.34;38.78
51999;BME280;38015;50.924;11.598;2022-08-18T12:30:10;99107.41;;;26.39;38.70
51999;BME280;38015;50.924;11.598;2022-08-18T12:32:39;99103.66;;;26.29;38.91
51999;BME280;38015;50.924;11.598;2022-08-18T12:35:10;99095.01;;;26.36;38.78
51999;BME280;38015;50.924;11.598;2022-08-18T12:37:42;99091.78;;;26.36;38.90
51999;BME280;38015;50.924;11.598;2022-08-18T12:40:11;99082.75;;;26.36;38.84
51999;BME280;38015;50.924;11.598;2022-08-18T12:42:40;99071.05;;;26.38;38.71
51999;BME280;38015;50.924;11.598;2022-08-18T12:45:11;99054.46;;;26.32;38.93
51999;BME280;38015;50.924;11.598;2022-08-18T12:47:41;99033.81;;;26.31;39.10
51999;BME280;38015;50.924;11.598;2022-08-18T12:50:12;99023.85;;;26.35;39.24
51999;BME280;38015;50.924;11.598;2022-08-18T12:52:42;99027.39;;;26.28;39.21
51999;BME280;38015;50.924;11.598;2022-08-18T12:55:12;99024.95;;;26.29;39.13
51999;BME280;38015;50.924;11.598;2022-08-18T12:57:43;99026.76;;;26.28;39.22
51999;BME280;38015;50.924;11.598;2022-08-18T13:00:14;99019.31;;;26.27;39.17
51999;BME280;38015;50.924;11.598;2022-08-18T13:02:43;99017.62;;;26.36;39.23
51999;BME280;38015;50.924;11.598;2022-08-18T13:05:13;99024.73;;;26.36;38.92
51999;BME280;38015;50.924;11.598;2022-08-18T13:07:43;99030.26;;;26.39;38.85
51999;BME280;38015;50.924;11.598;2022-08-18T13:10:14;99035.77;;;26.44;38.80
51999;BME280;38015;50.924;11.598;2022-08-18T13:12:44;99040.87;;;26.43;38.93
51999;BME280;38015;50.924;11.598;2022-08-18T13:15:15;99042.57;;;26.40;39.07
51999;BME280;38015;50.924;11.598;2022-08-18T13:17:45;99042.12;;;26.47;39.08
51999;BME280;38015;50.924;11.598;2022-08-18T13:20:16;99036.41;;;26.38;39.14
51999;BME280;38015;50.924;11.598;2022-08-18T13:22:46;99036.59;;;26.30;39.41
51999;BME280;38015;50.924;11.598;2022-08-18T13:25:17;99036.07;;;26.34;39.29
51999;BME280;38015;50.924;11.598;2022-08-18T13:27:48;99029.32;;;26.32;39.37
51999;BME280;38015;50.924;11.598;2022-08-18T13:30:18;99030.92;;;26.33;39.32
51999;BME280;38015;50.924;11.598;2022-08-18T13:32:48;99030.09;;;26.33;39.36
51999;BME280;38015;50.924;11.598;2022-08-18T13:35:20;99026.36;;;26.29;39.53
51999;BME280;38015;50.924;11.598;2022-08-18T13:37:49;99033.92;;;26.20;39.88
51999;BME280;38015;50.924;11.598;2022-08-18T13:40:20;99036.43;;;26.14;40.03
51999;BME280;38015;50.924;11.598;2022-08-18T13:42:50;99033.07;;;26.13;39.98
51999;BME280;38015;50.924;11.598;2022-08-18T13:45:21;99035.08;;;26.19;40.12
51999;BME280;38015;50.924;11.598;2022-08-18T13:47:51;99039.70;;;26.16;40.56
51999;BME280;38015;50.924;11.598;2022-08-18T13:50:21;99038.50;;;26.21;40.12
51999;BME280;38015;50.924;11.598;2022-08-18T13:52:52;99031.02;;;26.20;40.40